Time,TemperatureF,DewpointF,PressureIn,WindDirection,WindDirectionDegrees,WindSpeedMPH,WindSpeedGustMPH,Humidity,HourlyPrecipIn,Conditions,Clouds,dailyrainin,SoftwareType,DateUTC
2013-12-28 00:01:00,74.0,71.2,30.18,East,94,2.0,2.0,91,0.00,,,0.00,Wunderground v.1.15,2013-12-28 05:01:00,
2013-12-28 00:03:00,73.9,71.1,30.18,ENE,74,0.0,2.0,91,0.00,,,0.00,Wunderground v.1.15,2013-12-28 05:03:00,
2013-12-28 00:04:00,73.9,71.1,30.17,East,92,1.0,2.0,91,0.00,,,0.00,Wunderground v.1.15,2013-12-28 05:04:00,
2013-12-28 00:07:00,73.8,71.0,30.17,NE,35,2.0,2.0,91,0.00,,,0.00,Wunderground v.1.15,2013-12-28 05:07:00,
2013-12-28 00:12:00,73.9,71.1,30.17,ENE,60,0.0,2.0,91,0.00,,,0.00,Wunderground v.1.15,2013-12-28 05:12:00,
2013-12-28 00:14:00,74.0,70.9,30.17,NE,39,0.0,2.0,90,0.00,,,0.00,Wunderground v.1.15,2013-12-28 05:14:00,
2013-12-28 00:20:00,74.0,70.9,30.17,NE,41,1.0,2.0,90,0.00,,,0.00,Wunderground v.1.15,2013-12-28 05:20:00,
2013-12-28 00:22:00,74.1,71.0,30.17,East,92,2.0,2.0,90,0.00,,,0.00,Wunderground v.1.15,2013-12-28 05:22:00,
2013-12-28 00:27:00,74.1,71.0,30.17,NE,53,1.0,2.0,90,0.00,,,0.01,Wunderground v.1.15,2013-12-28 05:27:00,
2013-12-28 00:32:00,74.1,71.0,30.17,East,79,0.0,2.0,90,0.00,,,0.01,Wunderground v.1.15,2013-12-28 05:32:00,
2013-12-28 00:38:00,74.1,70.6,30.17,East,85,3.0,3.0,89,0.00,,,0.01,Wunderground v.1.15,2013-12-28 05:38:00,
2013-12-28 00:43:00,74.0,70.9,30.17,ESE,120,0.0,1.0,90,0.00,,,0.01,Wunderground v.1.15,2013-12-28 05:43:00,
2013-12-28 00:49:00,74.0,70.9,30.17,East,80,2.0,2.0,90,0.00,,,0.01,Wunderground v.1.15,2013-12-28 05:49:00,
2013-12-28 00:55:00,74.1,71.0,30.17,ENE,77,0.0,4.0,90,0.00,,,0.01,Wunderground v.1.15,2013-12-28 05:55:00,
2013-12-28 01:00:00,74.1,70.6,30.17,East,80,0.0,1.0,89,0.00,,,0.01,Wunderground v.1.15,2013-12-28 06:00:00,
2013-12-28 01:06:00,74.0,70.9,30.17,East,81,0.0,1.0,90,0.00,,,0.02,Wunderground v.1.15,2013-12-28 06:06:00,
2013-12-28 01:12:00,73.8,70.7,30.17,NNE,29,0.0,0.0,90,0.00,,,0.02,Wunderground v.1.15,2013-12-28 06:12:00,
2013-12-28 01:18:00,73.7,70.9,30.16,East,79,0.0,1.0,91,0.00,,,0.02,Wunderground v.1.15,2013-12-28 06:18:00,
2013-12-28 01:23:00,73.6,70.8,30.16,East,87,0.0,0.0,91,0.00,,,0.03,Wunderground v.1.15,2013-12-28 06:23:00,
2013-12-28 01:29:00,73.6,70.8,30.17,East,89,1.0,2.0,91,1.35,,,0.06,Wunderground v.1.15,2013-12-28 06:29:00,
2013-12-28 01:34:00,73.5,71.0,30.17,SE,146,0.0,2.0,92,2.87,,,0.23,Wunderground v.1.15,2013-12-28 06:34:00,
2013-12-28 01:39:00,73.1,70.6,30.17,NNE,30,0.0,7.0,92,2.44,,,0.48,Wunderground v.1.15,2013-12-28 06:39:00,
2013-12-28 01:44:00,72.4,69.9,30.16,ESE,123,1.0,5.0,92,0.35,,,0.56,Wunderground v.1.15,2013-12-28 06:44:00,
2013-12-28 01:50:00,72.0,69.9,30.16,NE,34,3.0,3.0,93,0.16,,,0.58,Wunderground v.1.15,2013-12-28 06:50:00,
2013-12-28 01:55:00,71.8,70.0,30.16,East,85,0.0,3.0,94,0.11,,,0.59,Wunderground v.1.15,2013-12-28 06:55:00,
2013-12-28 02:00:00,72.0,70.5,30.16,ENE,65,0.0,1.0,95,0.10,,,0.59,Wunderground v.1.15,2013-12-28 07:00:00,
2013-12-28 02:05:00,72.2,70.7,30.16,ENE,63,2.0,5.0,95,0.05,,,0.59,Wunderground v.1.15,2013-12-28 07:05:00,
2013-12-28 02:10:00,72.4,70.9,30.16,NE,54,0.0,1.0,95,0.04,,,0.59,Wunderground v.1.15,2013-12-28 07:10:00,
2013-12-28 02:15:00,72.5,71.0,30.16,NNE,18,2.0,5.0,95,0.00,,,0.59,Wunderground v.1.15,2013-12-28 07:15:00,
2013-12-28 02:20:00,72.4,70.9,30.16,East,97,1.0,4.0,95,0.00,,,0.59,Wunderground v.1.15,2013-12-28 07:20:00,
2013-12-28 02:25:00,72.4,70.9,30.15,ENE,73,0.0,4.0,95,0.00,,,0.59,Wunderground v.1.15,2013-12-28 07:25:00,
2013-12-28 02:30:00,72.4,70.9,30.15,ENE,58,1.0,1.0,95,0.00,,,0.59,Wunderground v.1.15,2013-12-28 07:30:00,
2013-12-28 02:35:00,72.5,71.0,30.14,ENE,72,0.0,2.0,95,0.00,,,0.59,Wunderground v.1.15,2013-12-28 07:35:00,
2013-12-28 02:40:00,72.4,70.9,30.14,East,82,0.0,1.0,95,0.00,,,0.59,Wunderground v.1.15,2013-12-28 07:40:00,
2013-12-28 02:45:00,72.3,70.8,30.14,ENE,77,1.0,2.0,95,0.00,,,0.59,Wunderground v.1.15,2013-12-28 07:45:00,
2013-12-28 02:50:00,72.3,70.8,30.14,ENE,64,0.0,2.0,95,0.00,,,0.59,Wunderground v.1.15,2013-12-28 07:50:00,
2013-12-28 02:55:00,72.4,71.2,30.14,ENE,70,0.0,2.0,96,0.00,,,0.59,Wunderground v.1.15,2013-12-28 07:55:00,
2013-12-28 03:00:00,72.4,71.2,30.14,NE,51,0.0,1.0,96,0.00,,,0.60,Wunderground v.1.15,2013-12-28 08:00:00,
2013-12-28 03:05:00,72.4,71.2,30.14,ESE,107,0.0,4.0,96,0.21,,,0.63,Wunderground v.1.15,2013-12-28 08:05:00,
2013-12-28 03:10:00,72.4,71.2,30.14,East,92,1.0,3.0,96,0.08,,,0.63,Wunderground v.1.15,2013-12-28 08:10:00,
2013-12-28 03:15:00,72.4,71.2,30.13,ENE,77,2.0,5.0,96,0.17,,,0.65,Wunderground v.1.15,2013-12-28 08:15:00,
2013-12-28 03:20:00,72.4,71.2,30.14,ENE,68,3.0,4.0,96,4.97,,,0.81,Wunderground v.1.15,2013-12-28 08:20:00,
2013-12-28 03:25:00,72.4,71.2,30.13,NNE,29,2.0,5.0,96,1.65,,,1.05,Wunderground v.1.15,2013-12-28 08:25:00,
2013-12-28 03:30:00,72.3,71.1,30.13,NNW,346,2.0,4.0,96,0.18,,,1.08,Wunderground v.1.15,2013-12-28 08:30:00,
2013-12-28 03:35:00,72.3,71.1,30.13,East,89,0.0,4.0,96,0.07,,,1.08,Wunderground v.1.15,2013-12-28 08:35:00,
2013-12-28 03:40:00,72.3,71.1,30.13,ESE,115,0.0,1.0,96,0.04,,,1.08,Wunderground v.1.15,2013-12-28 08:40:00,
2013-12-28 03:45:00,72.2,71.0,30.12,ESE,112,0.0,1.0,96,0.00,,,1.09,Wunderground v.1.15,2013-12-28 08:45:00,
2013-12-28 03:51:00,72.2,71.0,30.13,East,91,0.0,0.0,96,0.00,,,1.09,Wunderground v.1.15,2013-12-28 08:51:00,
2013-12-28 03:56:00,72.2,71.0,30.13,East,90,0.0,1.0,96,0.00,,,1.09,Wunderground v.1.15,2013-12-28 08:56:00,
2013-12-28 04:01:00,72.3,71.1,30.13,East,80,2.0,3.0,96,0.00,,,1.09,Wunderground v.1.15,2013-12-28 09:01:00,
2013-12-28 04:06:00,72.3,71.1,30.12,East,91,4.0,5.0,96,0.00,,,1.09,Wunderground v.1.15,2013-12-28 09:06:00,
2013-12-28 04:11:00,72.3,71.1,30.12,East,85,1.0,3.0,96,0.00,,,1.09,Wunderground v.1.15,2013-12-28 09:11:00,
2013-12-28 04:16:00,72.4,71.2,30.12,East,89,0.0,3.0,96,0.00,,,1.09,Wunderground v.1.15,2013-12-28 09:16:00,
2013-12-28 04:21:00,72.4,71.2,30.12,East,84,0.0,3.0,96,0.00,,,1.09,Wunderground v.1.15,2013-12-28 09:21:00,
2013-12-28 04:26:00,72.4,71.2,30.12,East,93,0.0,3.0,96,0.00,,,1.09,Wunderground v.1.15,2013-12-28 09:26:00,
2013-12-28 04:31:00,72.5,71.3,30.12,East,89,2.0,5.0,96,0.00,,,1.09,Wunderground v.1.15,2013-12-28 09:31:00,
2013-12-28 04:36:00,72.6,71.4,30.12,East,96,3.0,5.0,96,0.00,,,1.09,Wunderground v.1.15,2013-12-28 09:36:00,
2013-12-28 04:41:00,72.6,71.4,30.12,East,82,3.0,4.0,96,0.00,,,1.09,Wunderground v.1.15,2013-12-28 09:41:00,
2013-12-28 04:46:00,72.7,71.5,30.12,ENE,76,0.0,8.0,96,0.00,,,1.09,Wunderground v.1.15,2013-12-28 09:46:00,
2013-12-28 04:51:00,72.7,71.2,30.12,ESE,103,3.0,5.0,95,0.00,,,1.09,Wunderground v.1.15,2013-12-28 09:51:00,
2013-12-28 04:56:00,72.8,71.3,30.12,East,88,0.0,5.0,95,0.00,,,1.09,Wunderground v.1.15,2013-12-28 09:56:00,
2013-12-28 05:01:00,72.7,71.2,30.13,East,85,0.0,2.0,95,0.00,,,1.09,Wunderground v.1.15,2013-12-28 10:01:00,
2013-12-28 05:06:00,72.7,71.2,30.13,East,82,0.0,2.0,95,0.00,,,1.09,Wunderground v.1.15,2013-12-28 10:06:00,
2013-12-28 05:11:00,72.6,71.1,30.13,ESE,108,1.0,1.0,95,0.00,,,1.09,Wunderground v.1.15,2013-12-28 10:11:00,
2013-12-28 05:16:00,72.6,71.1,30.13,East,89,3.0,3.0,95,0.00,,,1.09,Wunderground v.1.15,2013-12-28 10:16:00,
2013-12-28 05:21:00,72.6,71.1,30.13,East,94,0.0,1.0,95,0.00,,,1.09,Wunderground v.1.15,2013-12-28 10:21:00,
2013-12-28 05:26:00,72.7,71.2,30.13,East,91,0.0,2.0,95,0.00,,,1.09,Wunderground v.1.15,2013-12-28 10:26:00,
2013-12-28 05:31:00,72.6,71.1,30.13,East,96,0.0,3.0,95,0.00,,,1.09,Wunderground v.1.15,2013-12-28 10:31:00,
2013-12-28 05:36:00,72.6,71.1,30.13,ENE,72,1.0,3.0,95,0.00,,,1.09,Wunderground v.1.15,2013-12-28 10:36:00,
2013-12-28 05:41:00,72.6,71.1,30.13,ENE,66,1.0,3.0,95,0.00,,,1.09,Wunderground v.1.15,2013-12-28 10:41:00,
2013-12-28 05:47:00,72.6,70.8,30.13,East,79,0.0,3.0,94,0.00,,,1.09,Wunderground v.1.15,2013-12-28 10:47:00,
2013-12-28 05:52:00,72.6,70.8,30.13,ENE,73,0.0,1.0,94,0.00,,,1.09,Wunderground v.1.15,2013-12-28 10:52:00,
2013-12-28 05:57:00,72.6,70.8,30.13,East,87,2.0,4.0,94,0.00,,,1.09,Wunderground v.1.15,2013-12-28 10:57:00,
2013-12-28 06:02:00,72.6,70.8,30.13,East,101,0.0,4.0,94,0.00,,,1.09,Wunderground v.1.15,2013-12-28 11:02:00,
2013-12-28 06:07:00,72.7,70.9,30.14,ENE,75,1.0,4.0,94,0.00,,,1.09,Wunderground v.1.15,2013-12-28 11:07:00,
2013-12-28 06:12:00,72.8,71.0,30.14,East,96,1.0,4.0,94,0.00,,,1.09,Wunderground v.1.15,2013-12-28 11:12:00,
2013-12-28 06:17:00,72.9,70.8,30.15,East,91,0.0,4.0,93,0.00,,,1.09,Wunderground v.1.15,2013-12-28 11:17:00,
2013-12-28 06:22:00,73.0,70.9,30.15,ESE,108,2.0,3.0,93,0.00,,,1.09,Wunderground v.1.15,2013-12-28 11:22:00,
2013-12-28 06:27:00,73.1,71.0,30.15,ESE,119,0.0,3.0,93,0.00,,,1.09,Wunderground v.1.15,2013-12-28 11:27:00,
2013-12-28 06:32:00,73.1,71.0,30.15,East,91,2.0,5.0,93,0.00,,,1.09,Wunderground v.1.15,2013-12-28 11:32:00,
2013-12-28 06:37:00,73.3,70.8,30.15,East,86,3.0,5.0,92,0.00,,,1.09,Wunderground v.1.15,2013-12-28 11:37:00,
2013-12-28 06:42:00,73.4,70.9,30.15,East,79,1.0,5.0,92,0.00,,,1.09,Wunderground v.1.15,2013-12-28 11:42:00,
2013-12-28 06:47:00,73.6,71.1,30.15,East,93,1.0,5.0,92,0.00,,,1.09,Wunderground v.1.15,2013-12-28 11:47:00,
2013-12-28 06:52:00,73.7,70.9,30.15,ESE,103,1.0,6.0,91,0.00,,,1.09,Wunderground v.1.15,2013-12-28 11:52:00,
2013-12-28 06:57:00,73.8,71.0,30.15,East,86,0.0,6.0,91,0.00,,,1.09,Wunderground v.1.15,2013-12-28 11:57:00,
2013-12-28 07:02:00,73.9,71.1,30.15,ENE,65,1.0,6.0,91,0.00,,,1.09,Wunderground v.1.15,2013-12-28 12:02:00,
2013-12-28 07:07:00,73.9,70.8,30.15,East,87,1.0,6.0,90,0.00,,,1.09,Wunderground v.1.15,2013-12-28 12:07:00,
2013-12-28 07:12:00,73.8,70.7,30.16,East,94,2.0,4.0,90,0.00,,,1.09,Wunderground v.1.15,2013-12-28 12:12:00,
2013-12-28 07:17:00,73.8,70.7,30.15,East,93,1.0,6.0,90,0.00,,,1.09,Wunderground v.1.15,2013-12-28 12:17:00,
2013-12-28 07:22:00,73.8,70.7,30.15,East,82,3.0,5.0,90,0.00,,,1.09,Wunderground v.1.15,2013-12-28 12:22:00,
2013-12-28 07:27:00,73.9,70.8,30.15,East,83,1.0,5.0,90,0.00,,,1.09,Wunderground v.1.15,2013-12-28 12:27:00,
2013-12-28 07:32:00,73.9,70.8,30.16,ESE,112,1.0,3.0,90,0.00,,,1.09,Wunderground v.1.15,2013-12-28 12:32:00,
2013-12-28 07:37:00,73.9,70.8,30.16,East,80,0.0,4.0,90,0.00,,,1.09,Wunderground v.1.15,2013-12-28 12:37:00,
2013-12-28 07:42:00,74.0,70.9,30.16,ESE,107,3.0,3.0,90,0.00,,,1.09,Wunderground v.1.15,2013-12-28 12:42:00,
2013-12-28 07:47:00,74.2,71.1,30.16,ESE,103,1.0,5.0,90,0.00,,,1.09,Wunderground v.1.15,2013-12-28 12:47:00,
2013-12-28 07:52:00,74.4,71.3,30.17,East,84,0.0,4.0,90,0.00,,,1.09,Wunderground v.1.15,2013-12-28 12:52:00,
2013-12-28 07:57:00,74.6,71.5,30.17,ENE,75,0.0,4.0,90,0.00,,,1.09,Wunderground v.1.15,2013-12-28 12:57:00,
2013-12-28 08:02:00,74.8,71.7,30.17,ESE,111,6.0,6.0,90,0.00,,,1.09,Wunderground v.1.15,2013-12-28 13:02:00,
2013-12-28 08:07:00,75.1,72.0,30.17,ENE,69,0.0,6.0,90,0.00,,,1.09,Wunderground v.1.15,2013-12-28 13:07:00,
2013-12-28 08:12:00,75.4,71.9,30.17,East,92,4.0,7.0,89,0.00,,,1.09,Wunderground v.1.15,2013-12-28 13:12:00,
2013-12-28 08:17:00,75.9,72.4,30.17,ESE,103,2.0,7.0,89,0.00,,,1.09,Wunderground v.1.15,2013-12-28 13:17:00,
2013-12-28 08:22:00,76.6,72.8,30.18,East,89,3.0,4.0,88,0.00,,,1.09,Wunderground v.1.15,2013-12-28 13:22:00,
2013-12-28 08:27:00,77.0,72.5,30.18,East,94,4.0,8.0,86,0.00,,,1.09,Wunderground v.1.15,2013-12-28 13:27:00,
2013-12-28 08:32:00,77.2,72.7,30.19,ENE,74,0.0,9.0,86,0.00,,,1.09,Wunderground v.1.15,2013-12-28 13:32:00,
2013-12-28 08:37:00,77.4,72.5,30.19,ESE,113,5.0,9.0,85,0.00,,,1.09,Wunderground v.1.15,2013-12-28 13:37:00,
2013-12-28 08:42:00,77.6,72.7,30.19,ESE,106,0.0,4.0,85,0.00,,,1.09,Wunderground v.1.15,2013-12-28 13:42:00,
2013-12-28 08:47:00,77.5,72.3,30.19,East,92,2.0,10.0,84,0.00,,,1.09,Wunderground v.1.15,2013-12-28 13:47:00,
2013-12-28 08:53:00,77.4,72.2,30.19,East,79,2.0,6.0,84,0.00,,,1.09,Wunderground v.1.15,2013-12-28 13:53:00,
2013-12-28 08:58:00,77.4,72.2,30.19,SE,134,2.0,9.0,84,0.00,,,1.09,Wunderground v.1.15,2013-12-28 13:58:00,
2013-12-28 09:03:00,77.4,72.5,30.19,East,101,4.0,7.0,85,0.00,,,1.09,Wunderground v.1.15,2013-12-28 14:03:00,
2013-12-28 09:08:00,77.5,72.6,30.19,East,91,6.0,10.0,85,0.00,,,1.09,Wunderground v.1.15,2013-12-28 14:08:00,
2013-12-28 09:13:00,77.8,72.9,30.19,ENE,75,0.0,6.0,85,0.00,,,1.09,Wunderground v.1.15,2013-12-28 14:13:00,
2013-12-28 09:18:00,78.3,73.1,30.18,East,91,2.0,9.0,84,0.00,,,1.09,Wunderground v.1.15,2013-12-28 14:18:00,
2013-12-28 09:23:00,78.5,72.9,30.19,East,98,2.0,9.0,83,0.00,,,1.09,Wunderground v.1.15,2013-12-28 14:23:00,
2013-12-28 09:28:00,78.5,72.9,30.19,East,101,4.0,11.0,83,0.00,,,1.09,Wunderground v.1.15,2013-12-28 14:28:00,
2013-12-28 09:33:00,78.9,72.9,30.19,East,95,3.0,13.0,82,0.00,,,1.09,Wunderground v.1.15,2013-12-28 14:33:00,
2013-12-28 09:38:00,79.0,72.7,30.19,ESE,117,6.0,13.0,81,0.00,,,1.09,Wunderground v.1.15,2013-12-28 14:38:00,
2013-12-28 09:43:00,79.1,73.1,30.19,East,96,4.0,8.0,82,0.00,,,1.09,Wunderground v.1.15,2013-12-28 14:43:00,
2013-12-28 09:48:00,79.1,73.1,30.19,ENE,71,2.0,9.0,82,0.00,,,1.09,Wunderground v.1.15,2013-12-28 14:48:00,
2013-12-28 09:53:00,79.2,73.2,30.19,ENE,70,5.0,13.0,82,0.00,,,1.09,Wunderground v.1.15,2013-12-28 14:53:00,
2013-12-28 09:58:00,79.3,73.0,30.19,NE,46,2.0,13.0,81,0.00,,,1.09,Wunderground v.1.15,2013-12-28 14:58:00,
2013-12-28 10:03:00,79.4,73.1,30.19,East,98,6.0,11.0,81,0.00,,,1.09,Wunderground v.1.15,2013-12-28 15:03:00,
2013-12-28 10:08:00,79.6,73.3,30.19,East,86,4.0,13.0,81,0.00,,,1.09,Wunderground v.1.15,2013-12-28 15:08:00,
2013-12-28 10:13:00,79.5,72.8,30.19,ENE,75,6.0,8.0,80,0.00,,,1.09,Wunderground v.1.15,2013-12-28 15:13:00,
2013-12-28 10:18:00,79.5,73.2,30.18,ESE,121,10.0,11.0,81,0.00,,,1.09,Wunderground v.1.15,2013-12-28 15:18:00,
2013-12-28 10:23:00,79.7,73.3,30.18,East,98,2.0,7.0,81,0.00,,,1.09,Wunderground v.1.15,2013-12-28 15:23:00,
2013-12-28 10:28:00,80.2,73.5,30.18,East,81,1.0,8.0,80,0.00,,,1.09,Wunderground v.1.15,2013-12-28 15:28:00,
2013-12-28 10:33:00,80.1,73.4,30.18,ESE,120,8.0,12.0,80,0.00,,,1.09,Wunderground v.1.15,2013-12-28 15:33:00,
2013-12-28 10:38:00,80.1,73.7,30.18,WSW,258,1.0,12.0,81,0.00,,,1.09,Wunderground v.1.15,2013-12-28 15:38:00,
2013-12-28 10:43:00,80.5,73.8,30.18,ENE,76,3.0,6.0,80,0.00,,,1.09,Wunderground v.1.15,2013-12-28 15:43:00,
2013-12-28 10:48:00,80.0,73.3,30.18,SE,132,8.0,11.0,80,0.00,,,1.09,Wunderground v.1.15,2013-12-28 15:48:00,
2013-12-28 10:53:00,79.6,72.9,30.17,East,98,4.0,8.0,80,0.00,,,1.09,Wunderground v.1.15,2013-12-28 15:53:00,
2013-12-28 10:58:00,79.4,73.1,30.17,ESE,109,7.0,11.0,81,0.00,,,1.09,Wunderground v.1.15,2013-12-28 15:58:00,
2013-12-28 11:03:00,79.2,72.9,30.17,NE,45,4.0,9.0,81,0.00,,,1.09,Wunderground v.1.15,2013-12-28 16:03:00,
2013-12-28 11:08:00,79.2,72.9,30.17,ENE,75,3.0,10.0,81,0.00,,,1.09,Wunderground v.1.15,2013-12-28 16:08:00,
2013-12-28 11:13:00,79.2,72.9,30.16,SE,143,1.0,11.0,81,0.00,,,1.09,Wunderground v.1.15,2013-12-28 16:13:00,
2013-12-28 11:18:00,79.2,72.9,30.16,East,86,3.0,11.0,81,0.00,,,1.09,Wunderground v.1.15,2013-12-28 16:18:00,
2013-12-28 11:23:00,79.3,73.0,30.16,SSE,158,2.0,10.0,81,0.00,,,1.09,Wunderground v.1.15,2013-12-28 16:23:00,
2013-12-28 11:29:00,79.3,72.6,30.15,ESE,105,2.0,12.0,80,0.00,,,1.09,Wunderground v.1.15,2013-12-28 16:29:00,
2013-12-28 11:34:00,79.1,72.8,30.15,East,86,6.0,12.0,81,0.00,,,1.09,Wunderground v.1.15,2013-12-28 16:34:00,
2013-12-28 11:39:00,79.0,72.3,30.15,ESE,111,5.0,12.0,80,0.00,,,1.09,Wunderground v.1.15,2013-12-28 16:39:00,
2013-12-28 11:44:00,78.9,72.6,30.15,ESE,118,5.0,9.0,81,0.00,,,1.09,Wunderground v.1.15,2013-12-28 16:44:00,
2013-12-28 11:49:00,78.8,72.5,30.15,NE,47,3.0,9.0,81,0.00,,,1.09,Wunderground v.1.15,2013-12-28 16:49:00,
2013-12-28 11:54:00,78.8,72.5,30.15,ENE,74,7.0,10.0,81,0.00,,,1.09,Wunderground v.1.15,2013-12-28 16:54:00,
2013-12-28 11:59:00,78.7,72.4,30.14,East,96,4.0,10.0,81,0.00,,,1.09,Wunderground v.1.15,2013-12-28 16:59:00,
2013-12-28 12:04:00,78.6,72.3,30.14,East,96,3.0,9.0,81,0.00,,,1.09,Wunderground v.1.15,2013-12-28 17:04:00,
2013-12-28 12:09:00,78.6,72.3,30.14,ESE,112,6.0,9.0,81,0.00,,,1.09,Wunderground v.1.15,2013-12-28 17:09:00,
2013-12-28 12:14:00,78.5,72.5,30.14,ESE,104,3.0,12.0,82,0.00,,,1.09,Wunderground v.1.15,2013-12-28 17:14:00,
2013-12-28 12:19:00,78.3,72.3,30.14,SE,134,1.0,12.0,82,0.00,,,1.09,Wunderground v.1.15,2013-12-28 17:19:00,
2013-12-28 12:24:00,78.1,72.2,30.13,East,93,6.0,13.0,82,0.00,,,1.09,Wunderground v.1.15,2013-12-28 17:24:00,
2013-12-28 12:29:00,78.1,72.5,30.13,East,84,1.0,13.0,83,0.00,,,1.09,Wunderground v.1.15,2013-12-28 17:29:00,
2013-12-28 12:34:00,78.2,72.6,30.13,ENE,66,2.0,12.0,83,0.00,,,1.09,Wunderground v.1.15,2013-12-28 17:34:00,
2013-12-28 12:39:00,78.1,72.5,30.13,ENE,65,2.0,12.0,83,0.00,,,1.09,Wunderground v.1.15,2013-12-28 17:39:00,
2013-12-28 12:44:00,78.1,72.5,30.13,East,98,1.0,6.0,83,0.00,,,1.09,Wunderground v.1.15,2013-12-28 17:44:00,
2013-12-28 12:49:00,78.2,72.3,30.13,ESE,111,10.0,10.0,82,0.00,,,1.09,Wunderground v.1.15,2013-12-28 17:49:00,
2013-12-28 12:54:00,78.1,72.2,30.12,East,86,2.0,12.0,82,0.00,,,1.09,Wunderground v.1.15,2013-12-28 17:54:00,
2013-12-28 12:59:00,78.1,72.2,30.12,East,82,2.0,12.0,82,0.00,,,1.09,Wunderground v.1.15,2013-12-28 17:59:00,
2013-12-28 13:04:00,78.2,72.6,30.12,SE,124,5.0,10.0,83,0.00,,,1.09,Wunderground v.1.15,2013-12-28 18:04:00,
2013-12-28 13:09:00,78.3,72.3,30.11,East,88,3.0,10.0,82,0.00,,,1.09,Wunderground v.1.15,2013-12-28 18:09:00,
2013-12-28 13:14:00,78.1,72.5,30.11,ESE,114,3.0,9.0,83,0.00,,,1.09,Wunderground v.1.15,2013-12-28 18:14:00,
2013-12-28 13:19:00,78.1,72.5,30.11,NNE,32,0.0,12.0,83,0.00,,,1.09,Wunderground v.1.15,2013-12-28 18:19:00,
2013-12-28 13:24:00,78.4,72.8,30.10,East,84,2.0,6.0,83,0.00,,,1.09,Wunderground v.1.15,2013-12-28 18:24:00,
2013-12-28 13:29:00,78.7,73.1,30.10,East,89,4.0,6.0,83,0.00,,,1.09,Wunderground v.1.15,2013-12-28 18:29:00,
2013-12-28 13:34:00,78.9,72.9,30.10,ENE,77,4.0,9.0,82,0.00,,,1.09,Wunderground v.1.15,2013-12-28 18:34:00,
2013-12-28 13:39:00,79.0,73.0,30.09,ESE,108,1.0,9.0,82,0.00,,,1.09,Wunderground v.1.15,2013-12-28 18:39:00,
2013-12-28 13:44:00,78.9,72.6,30.09,ENE,74,2.0,12.0,81,0.00,,,1.09,Wunderground v.1.15,2013-12-28 18:44:00,
2013-12-28 13:49:00,78.7,72.7,30.09,East,86,1.0,13.0,82,0.00,,,1.09,Wunderground v.1.15,2013-12-28 18:49:00,
2013-12-28 13:54:00,78.8,72.8,30.09,ENE,77,0.0,7.0,82,0.00,,,1.09,Wunderground v.1.15,2013-12-28 18:54:00,
2013-12-28 13:59:00,78.9,72.6,30.09,SE,127,3.0,8.0,81,0.00,,,1.09,Wunderground v.1.15,2013-12-28 18:59:00,
2013-12-28 14:04:00,78.8,72.5,30.09,East,84,0.0,11.0,81,0.00,,,1.09,Wunderground v.1.15,2013-12-28 19:04:00,
2013-12-28 14:09:00,78.9,72.6,30.08,ENE,76,5.0,11.0,81,0.00,,,1.09,Wunderground v.1.15,2013-12-28 19:09:00,
2013-12-28 14:14:00,78.7,72.0,30.08,East,79,3.0,11.0,80,0.00,,,1.09,Wunderground v.1.15,2013-12-28 19:14:00,
2013-12-28 14:19:00,78.6,72.3,30.08,East,84,3.0,11.0,81,0.00,,,1.09,Wunderground v.1.15,2013-12-28 19:19:00,
2013-12-28 14:24:00,78.5,72.2,30.09,East,98,2.0,7.0,81,0.00,,,1.09,Wunderground v.1.15,2013-12-28 19:24:00,
2013-12-28 14:29:00,78.5,72.5,30.09,East,100,5.0,10.0,82,0.00,,,1.09,Wunderground v.1.15,2013-12-28 19:29:00,
2013-12-28 14:34:00,78.5,72.5,30.09,East,82,2.0,5.0,82,0.00,,,1.09,Wunderground v.1.15,2013-12-28 19:34:00,
2013-12-28 14:39:00,78.2,72.3,30.09,ENE,70,8.0,9.0,82,0.00,,,1.09,Wunderground v.1.15,2013-12-28 19:39:00,
2013-12-28 14:44:00,78.0,72.1,30.08,ENE,77,5.0,8.0,82,0.00,,,1.09,Wunderground v.1.15,2013-12-28 19:44:00,
2013-12-28 14:49:00,77.9,72.0,30.08,East,96,4.0,8.0,82,0.00,,,1.09,Wunderground v.1.15,2013-12-28 19:49:00,
2013-12-28 14:54:00,77.9,72.3,30.08,ENE,74,2.0,3.0,83,0.00,,,1.09,Wunderground v.1.15,2013-12-28 19:54:00,
2013-12-28 14:59:00,77.8,72.2,30.08,ENE,62,1.0,9.0,83,0.00,,,1.09,Wunderground v.1.15,2013-12-28 19:59:00,
2013-12-28 15:04:00,77.8,72.2,30.07,SE,126,4.0,9.0,83,0.00,,,1.09,Wunderground v.1.15,2013-12-28 20:04:00,
2013-12-28 15:09:00,77.9,72.3,30.07,ESE,112,0.0,9.0,83,0.00,,,1.09,Wunderground v.1.15,2013-12-28 20:09:00,
2013-12-28 15:14:00,78.1,72.5,30.07,East,100,1.0,6.0,83,0.00,,,1.09,Wunderground v.1.15,2013-12-28 20:14:00,
2013-12-28 15:19:00,78.1,72.5,30.07,ENE,75,2.0,8.0,83,0.00,,,1.09,Wunderground v.1.15,2013-12-28 20:19:00,
2013-12-28 15:24:00,77.8,72.9,30.06,ENE,69,2.0,5.0,85,0.00,,,1.09,Wunderground v.1.15,2013-12-28 20:24:00,
2013-12-28 15:29:00,77.8,72.9,30.06,ESE,104,8.0,10.0,85,0.00,,,1.09,Wunderground v.1.15,2013-12-28 20:29:00,
2013-12-28 15:34:00,78.0,72.8,30.06,NE,56,3.0,9.0,84,0.00,,,1.09,Wunderground v.1.15,2013-12-28 20:34:00,
2013-12-28 15:39:00,78.1,72.5,30.06,East,86,9.0,9.0,83,0.00,,,1.09,Wunderground v.1.15,2013-12-28 20:39:00,
2013-12-28 15:44:00,78.3,73.1,30.06,ENE,71,2.0,8.0,84,0.00,,,1.09,Wunderground v.1.15,2013-12-28 20:44:00,
2013-12-28 15:49:00,78.3,72.7,30.06,SE,127,4.0,8.0,83,0.00,,,1.09,Wunderground v.1.15,2013-12-28 20:49:00,
2013-12-28 15:54:00,78.4,72.8,30.06,East,96,6.0,10.0,83,0.00,,,1.09,Wunderground v.1.15,2013-12-28 20:54:00,
2013-12-28 15:59:00,78.3,72.7,30.06,East,79,2.0,11.0,83,0.00,,,1.09,Wunderground v.1.15,2013-12-28 20:59:00,
2013-12-28 16:04:00,78.1,72.5,30.07,NE,46,0.0,8.0,83,0.00,,,1.09,Wunderground v.1.15,2013-12-28 21:04:00,
2013-12-28 16:09:00,78.0,72.8,30.07,East,89,5.0,8.0,84,0.00,,,1.09,Wunderground v.1.15,2013-12-28 21:09:00,
2013-12-28 16:14:00,77.8,72.6,30.07,ENE,70,1.0,6.0,84,0.00,,,1.09,Wunderground v.1.15,2013-12-28 21:14:00,
2013-12-28 16:19:00,77.7,72.8,30.07,SE,135,3.0,8.0,85,0.00,,,1.09,Wunderground v.1.15,2013-12-28 21:19:00,
2013-12-28 16:24:00,77.6,72.7,30.07,East,92,3.0,6.0,85,0.00,,,1.09,Wunderground v.1.15,2013-12-28 21:24:00,
2013-12-28 16:29:00,77.5,72.6,30.07,East,89,3.0,8.0,85,0.00,,,1.09,Wunderground v.1.15,2013-12-28 21:29:00,
2013-12-28 16:34:00,77.4,72.5,30.07,SE,127,5.0,8.0,85,0.00,,,1.09,Wunderground v.1.15,2013-12-28 21:34:00,
2013-12-28 16:39:00,77.4,72.5,30.07,SE,136,7.0,8.0,85,0.00,,,1.09,Wunderground v.1.15,2013-12-28 21:39:00,
2013-12-28 16:44:00,77.3,72.4,30.07,ESE,115,3.0,9.0,85,0.00,,,1.09,Wunderground v.1.15,2013-12-28 21:44:00,
2013-12-28 16:49:00,77.3,72.4,30.07,SW,228,4.0,9.0,85,0.00,,,1.09,Wunderground v.1.15,2013-12-28 21:49:00,
2013-12-28 16:54:00,77.2,72.0,30.07,East,86,4.0,10.0,84,0.00,,,1.09,Wunderground v.1.15,2013-12-28 21:54:00,
2013-12-28 16:59:00,77.2,72.3,30.07,East,93,2.0,11.0,85,0.00,,,1.09,Wunderground v.1.15,2013-12-28 21:59:00,
2013-12-28 17:04:00,77.1,72.2,30.07,ESE,106,2.0,7.0,85,0.00,,,1.09,Wunderground v.1.15,2013-12-28 22:04:00,
2013-12-28 17:09:00,77.0,72.1,30.07,SSW,210,2.0,7.0,85,0.00,,,1.09,Wunderground v.1.15,2013-12-28 22:09:00,
2013-12-28 17:15:00,77.0,72.1,30.07,East,101,1.0,5.0,85,0.00,,,1.09,Wunderground v.1.15,2013-12-28 22:15:00,
2013-12-28 17:20:00,77.0,72.1,30.07,East,93,0.0,2.0,85,0.00,,,1.09,Wunderground v.1.15,2013-12-28 22:20:00,
2013-12-28 17:25:00,77.0,72.1,30.08,ESE,108,2.0,8.0,85,0.00,,,1.09,Wunderground v.1.15,2013-12-28 22:25:00,
2013-12-28 17:30:00,77.0,72.1,30.08,ESE,108,2.0,2.0,85,0.00,,,1.09,Wunderground v.1.15,2013-12-28 22:30:00,
2013-12-28 17:35:00,77.0,72.1,30.07,ENE,77,1.0,8.0,85,0.00,,,1.09,Wunderground v.1.15,2013-12-28 22:35:00,
2013-12-28 17:40:00,76.9,72.0,30.07,East,84,2.0,2.0,85,0.00,,,1.09,Wunderground v.1.15,2013-12-28 22:40:00,
2013-12-28 17:45:00,77.0,72.1,30.07,WSW,257,0.0,8.0,85,0.00,,,1.09,Wunderground v.1.15,2013-12-28 22:45:00,
2013-12-28 17:50:00,77.0,72.1,30.07,East,87,3.0,6.0,85,0.00,,,1.09,Wunderground v.1.15,2013-12-28 22:50:00,
2013-12-28 17:55:00,76.9,72.0,30.07,East,86,1.0,8.0,85,0.00,,,1.09,Wunderground v.1.15,2013-12-28 22:55:00,
2013-12-28 18:00:00,77.0,72.1,30.07,ENE,76,2.0,2.0,85,0.00,,,1.09,Wunderground v.1.15,2013-12-28 23:00:00,
2013-12-28 18:05:00,76.9,72.0,30.07,East,88,3.0,9.0,85,0.00,,,1.09,Wunderground v.1.15,2013-12-28 23:05:00,
2013-12-28 18:10:00,76.9,72.0,30.07,ENE,58,1.0,3.0,85,0.00,,,1.09,Wunderground v.1.15,2013-12-28 23:10:00,
2013-12-28 18:15:00,76.9,72.0,30.07,East,84,3.0,10.0,85,0.00,,,1.09,Wunderground v.1.15,2013-12-28 23:15:00,
2013-12-28 18:20:00,76.8,71.9,30.07,ENE,67,1.0,3.0,85,0.00,,,1.09,Wunderground v.1.15,2013-12-28 23:20:00,
2013-12-28 18:25:00,76.8,71.9,30.07,East,91,0.0,10.0,85,0.00,,,1.09,Wunderground v.1.15,2013-12-28 23:25:00,
2013-12-28 18:30:00,76.8,71.9,30.07,ENE,77,5.0,5.0,85,0.00,,,1.09,Wunderground v.1.15,2013-12-28 23:30:00,
2013-12-28 18:35:00,76.8,71.9,30.08,East,94,1.0,6.0,85,0.00,,,1.09,Wunderground v.1.15,2013-12-28 23:35:00,
2013-12-28 18:40:00,76.8,71.9,30.08,ENE,73,1.0,7.0,85,0.00,,,1.09,Wunderground v.1.15,2013-12-28 23:40:00,
2013-12-28 18:45:00,76.9,72.0,30.08,East,82,3.0,6.0,85,0.00,,,1.09,Wunderground v.1.15,2013-12-28 23:45:00,
2013-12-28 18:50:00,77.0,72.1,30.08,ESE,107,2.0,2.0,85,0.00,,,1.09,Wunderground v.1.15,2013-12-28 23:50:00,
2013-12-28 18:55:00,77.0,72.1,30.08,ESE,112,0.0,11.0,85,0.00,,,1.09,Wunderground v.1.15,2013-12-28 23:55:00,
2013-12-28 19:00:00,77.1,72.2,30.08,SE,124,4.0,4.0,85,0.00,,,1.09,Wunderground v.1.15,2013-12-29 00:00:00,
2013-12-28 19:05:00,77.1,71.9,30.08,ESE,106,4.0,6.0,84,0.00,,,1.09,Wunderground v.1.15,2013-12-29 00:05:00,
2013-12-28 19:10:00,77.0,72.1,30.08,East,95,2.0,3.0,85,0.00,,,1.09,Wunderground v.1.15,2013-12-29 00:10:00,
2013-12-28 19:15:00,77.0,72.1,30.08,East,101,2.0,8.0,85,0.00,,,1.09,Wunderground v.1.15,2013-12-29 00:15:00,
2013-12-28 19:20:00,76.9,72.0,30.09,East,101,1.0,2.0,85,0.00,,,1.09,Wunderground v.1.15,2013-12-29 00:20:00,
2013-12-28 19:25:00,76.9,72.0,30.09,East,100,2.0,6.0,85,0.00,,,1.09,Wunderground v.1.15,2013-12-29 00:25:00,
2013-12-28 19:30:00,76.9,72.0,30.09,East,92,6.0,6.0,85,0.00,,,1.09,Wunderground v.1.15,2013-12-29 00:30:00,
2013-12-28 19:35:00,76.9,72.0,30.09,East,84,2.0,7.0,85,0.00,,,1.09,Wunderground v.1.15,2013-12-29 00:35:00,
2013-12-28 19:40:00,76.8,71.9,30.09,East,89,0.0,2.0,85,0.00,,,1.09,Wunderground v.1.15,2013-12-29 00:40:00,
2013-12-28 19:45:00,76.8,72.3,30.09,SSE,153,0.0,6.0,86,0.00,,,1.09,Wunderground v.1.15,2013-12-29 00:45:00,
2013-12-28 19:50:00,76.8,72.3,30.09,ESE,105,2.0,10.0,86,0.00,,,1.09,Wunderground v.1.15,2013-12-29 00:50:00,
2013-12-28 19:55:00,76.8,72.3,30.09,East,86,0.0,10.0,86,0.00,,,1.09,Wunderground v.1.15,2013-12-29 00:55:00,
2013-12-28 20:00:00,76.8,72.3,30.09,East,89,1.0,5.0,86,0.00,,,1.09,Wunderground v.1.15,2013-12-29 01:00:00,
2013-12-28 20:05:00,76.9,72.4,30.09,NE,39,6.0,11.0,86,0.00,,,1.09,Wunderground v.1.15,2013-12-29 01:05:00,
2013-12-28 20:10:00,76.9,72.4,30.09,ESE,118,4.0,8.0,86,0.00,,,1.09,Wunderground v.1.15,2013-12-29 01:10:00,
2013-12-28 20:15:00,77.0,72.5,30.09,East,92,6.0,9.0,86,0.00,,,1.09,Wunderground v.1.15,2013-12-29 01:15:00,
2013-12-28 20:20:00,77.0,72.5,30.10,East,96,1.0,4.0,86,0.00,,,1.09,Wunderground v.1.15,2013-12-29 01:20:00,
2013-12-28 20:25:00,77.0,72.5,30.10,East,97,0.0,5.0,86,0.00,,,1.09,Wunderground v.1.15,2013-12-29 01:25:00,
2013-12-28 20:30:00,76.9,72.4,30.10,SSE,159,3.0,4.0,86,0.00,,,1.09,Wunderground v.1.15,2013-12-29 01:30:00,
2013-12-28 20:35:00,76.8,72.3,30.10,East,98,1.0,4.0,86,0.00,,,1.09,Wunderground v.1.15,2013-12-29 01:35:00,
2013-12-28 20:40:00,76.8,72.3,30.10,SE,127,0.0,2.0,86,0.00,,,1.09,Wunderground v.1.15,2013-12-29 01:40:00,
2013-12-28 20:45:00,76.7,72.5,30.10,SE,134,3.0,3.0,87,0.00,,,1.09,Wunderground v.1.15,2013-12-29 01:45:00,
2013-12-28 20:50:00,76.8,72.6,30.09,East,86,4.0,4.0,87,0.00,,,1.09,Wunderground v.1.15,2013-12-29 01:50:00,
2013-12-28 20:55:00,76.8,72.6,30.09,NNW,333,2.0,8.0,87,0.00,,,1.09,Wunderground v.1.15,2013-12-29 01:55:00,
2013-12-28 21:00:00,76.9,72.7,30.09,East,91,0.0,2.0,87,0.00,,,1.09,Wunderground v.1.15,2013-12-29 02:00:00,
2013-12-28 21:05:00,76.9,72.7,30.09,ESE,115,3.0,7.0,87,0.00,,,1.09,Wunderground v.1.15,2013-12-29 02:05:00,
2013-12-28 21:10:00,76.9,72.7,30.09,ESE,113,0.0,4.0,87,0.00,,,1.09,Wunderground v.1.15,2013-12-29 02:10:00,
2013-12-28 21:15:00,76.9,72.7,30.08,East,101,0.0,10.0,87,0.00,,,1.09,Wunderground v.1.15,2013-12-29 02:15:00,
2013-12-28 21:20:00,76.8,72.6,30.08,East,84,2.0,4.0,87,0.00,,,1.09,Wunderground v.1.15,2013-12-29 02:20:00,
2013-12-28 21:25:00,76.8,72.6,30.08,ENE,75,7.0,7.0,87,0.00,,,1.09,Wunderground v.1.15,2013-12-29 02:25:00,
2013-12-28 21:30:00,76.7,72.5,30.08,ENE,70,3.0,6.0,87,0.00,,,1.09,Wunderground v.1.15,2013-12-29 02:30:00,
2013-12-28 21:35:00,76.7,72.5,30.08,East,101,3.0,8.0,87,0.00,,,1.09,Wunderground v.1.15,2013-12-29 02:35:00,
2013-12-28 21:40:00,76.7,72.5,30.08,SE,136,4.0,5.0,87,0.00,,,1.09,Wunderground v.1.15,2013-12-29 02:40:00,
2013-12-28 21:45:00,76.6,72.4,30.07,East,79,2.0,8.0,87,0.00,,,1.09,Wunderground v.1.15,2013-12-29 02:45:00,
2013-12-28 21:50:00,76.6,72.4,30.07,ENE,70,3.0,4.0,87,0.00,,,1.09,Wunderground v.1.15,2013-12-29 02:50:00,
2013-12-28 21:55:00,76.5,72.7,30.07,ENE,75,5.0,7.0,88,0.00,,,1.09,Wunderground v.1.15,2013-12-29 02:55:00,
2013-12-28 22:00:00,76.5,72.7,30.07,SE,143,5.0,5.0,88,0.00,,,1.09,Wunderground v.1.15,2013-12-29 03:00:00,
2013-12-28 22:05:00,76.4,72.6,30.07,ESE,115,9.0,10.0,88,0.00,,,1.09,Wunderground v.1.15,2013-12-29 03:05:00,
2013-12-28 22:10:00,76.4,72.6,30.07,SE,128,5.0,6.0,88,0.00,,,1.09,Wunderground v.1.15,2013-12-29 03:10:00,
2013-12-28 22:15:00,76.4,72.6,30.07,South,180,4.0,8.0,88,0.00,,,1.09,Wunderground v.1.15,2013-12-29 03:15:00,
2013-12-28 22:20:00,76.4,72.6,30.07,ENE,74,2.0,6.0,88,0.00,,,1.09,Wunderground v.1.15,2013-12-29 03:20:00,
2013-12-28 22:25:00,76.4,72.6,30.06,ESE,122,1.0,9.0,88,0.00,,,1.09,Wunderground v.1.15,2013-12-29 03:25:00,
2013-12-28 22:30:00,76.3,72.5,30.06,ENE,76,0.0,3.0,88,0.00,,,1.09,Wunderground v.1.15,2013-12-29 03:30:00,
2013-12-28 22:35:00,76.3,72.5,30.06,East,92,3.0,7.0,88,0.00,,,1.09,Wunderground v.1.15,2013-12-29 03:35:00,
2013-12-28 22:40:00,76.3,72.8,30.06,ENE,74,0.0,4.0,89,0.00,,,1.09,Wunderground v.1.15,2013-12-29 03:40:00,
2013-12-28 22:45:00,76.3,72.8,30.06,East,87,2.0,6.0,89,0.00,,,1.09,Wunderground v.1.15,2013-12-29 03:45:00,
2013-12-28 22:50:00,76.4,72.9,30.07,SSE,154,2.0,8.0,89,0.00,,,1.09,Wunderground v.1.15,2013-12-29 03:50:00,
2013-12-28 22:55:00,76.5,73.0,30.06,East,98,1.0,10.0,89,0.00,,,1.09,Wunderground v.1.15,2013-12-29 03:55:00,
2013-12-28 23:01:00,76.4,72.9,30.06,ESE,107,5.0,5.0,89,0.00,,,1.09,Wunderground v.1.15,2013-12-29 04:01:00,
2013-12-28 23:06:00,76.4,72.6,30.06,SSE,162,2.0,7.0,88,0.00,,,1.09,Wunderground v.1.15,2013-12-29 04:06:00,
2013-12-28 23:11:00,76.3,72.5,30.07,SE,124,5.0,6.0,88,0.00,,,1.09,Wunderground v.1.15,2013-12-29 04:11:00,
2013-12-28 23:16:00,76.2,72.7,30.06,East,93,1.0,7.0,89,0.00,,,1.09,Wunderground v.1.15,2013-12-29 04:16:00,
2013-12-28 23:21:00,76.2,72.7,30.06,ESE,105,2.0,5.0,89,0.00,,,1.09,Wunderground v.1.15,2013-12-29 04:21:00,
2013-12-28 23:26:00,76.2,72.7,30.06,ESE,112,0.0,9.0,89,0.00,,,1.09,Wunderground v.1.15,2013-12-29 04:26:00,
2013-12-28 23:31:00,76.2,72.7,30.06,SE,145,0.0,3.0,89,0.00,,,1.09,Wunderground v.1.15,2013-12-29 04:31:00,
2013-12-28 23:36:00,76.2,72.7,30.06,ESE,122,1.0,10.0,89,0.00,,,1.09,Wunderground v.1.15,2013-12-29 04:36:00,
2013-12-28 23:41:00,76.1,72.6,30.06,East,94,2.0,3.0,89,0.00,,,1.09,Wunderground v.1.15,2013-12-29 04:41:00,
2013-12-28 23:46:00,76.0,72.5,30.05,East,101,4.0,8.0,89,0.00,,,1.09,Wunderground v.1.15,2013-12-29 04:46:00,
2013-12-28 23:51:00,76.0,72.9,30.05,South,172,1.0,5.0,90,0.00,,,1.09,Wunderground v.1.15,2013-12-29 04:51:00,
2013-12-28 23:56:00,76.1,73.0,30.04,SE,129,1.0,8.0,90,0.00,,,1.09,Wunderground v.1.15,2013-12-29 04:56:00,